createdAt,value
2022-12-14T00:01:48.881Z,8.83
2022-12-14T00:04:16.538Z,8.33
2022-12-14T00:06:43.304Z,9.70
2022-12-14T00:09:10.262Z,9.30
2022-12-14T00:11:37.046Z,8.50
2022-12-14T00:14:04.739Z,8.97
2022-12-14T00:16:34.030Z,8.73
2022-12-14T00:19:01.565Z,9.17
2022-12-14T00:21:28.897Z,8.87
2022-12-14T00:23:57.869Z,8.90
2022-12-14T00:26:27.040Z,9.53
2022-12-14T00:28:56.742Z,9.23
2022-12-14T00:31:24.556Z,8.87
2022-12-14T00:33:52.198Z,9.47
2022-12-14T00:36:19.333Z,9.13
2022-12-14T00:38:46.184Z,9.23
2022-12-14T00:41:13.028Z,9.77
2022-12-14T00:43:40.265Z,9.47
2022-12-14T00:46:07.722Z,7.63
2022-12-14T00:48:34.645Z,8.77
2022-12-14T00:51:01.611Z,9.37
2022-12-14T00:53:28.427Z,9.77
2022-12-14T00:55:55.195Z,8.83
2022-12-14T00:58:24.094Z,8.40
2022-12-14T01:01:03.644Z,8.47
2022-12-14T01:03:31.447Z,8.53
2022-12-14T01:05:58.566Z,8.37
2022-12-14T01:08:25.489Z,9.67
2022-12-14T01:10:52.906Z,10.20
2022-12-14T01:13:19.726Z,8.73
2022-12-14T01:15:46.925Z,8.27
2022-12-14T01:18:13.786Z,8.27
2022-12-14T01:20:40.542Z,7.87
2022-12-14T01:23:07.219Z,8.77
2022-12-14T01:25:34.413Z,7.60
2022-12-14T01:28:01.174Z,7.87
2022-12-14T01:30:27.964Z,8.37
2022-12-14T01:32:54.935Z,7.53
2022-12-14T01:35:24.346Z,8.63
2022-12-14T01:37:51.075Z,7.83
2022-12-14T01:40:17.956Z,7.17
2022-12-14T01:42:44.756Z,8.97
2022-12-14T01:45:21.537Z,8.53
2022-12-14T01:47:55.983Z,7.93
2022-12-14T01:50:32.149Z,7.60
2022-12-14T01:53:21.074Z,8.13
2022-12-14T01:55:52.126Z,7.77
2022-12-14T01:58:24.339Z,7.60
2022-12-14T02:00:55.639Z,8.00
2022-12-14T02:03:30.993Z,7.57
2022-12-14T02:06:02.599Z,7.03
2022-12-14T02:08:34.955Z,7.50
2022-12-14T02:11:03.037Z,7.43
2022-12-14T02:13:38.638Z,7.10
2022-12-14T02:16:05.969Z,7.67
2022-12-14T02:18:34.390Z,7.77
2022-12-14T02:21:13.267Z,7.83
2022-12-14T02:24:14.362Z,6.50
2022-12-14T02:26:52.346Z,6.73
2022-12-14T02:29:36.382Z,7.33
2022-12-14T02:32:15.006Z,7.03
2022-12-14T02:34:59.852Z,6.53
2022-12-14T02:37:46.052Z,6.87
2022-12-14T02:40:43.919Z,6.87
2022-12-14T02:43:28.103Z,7.10
2022-12-14T02:46:25.154Z,6.77
2022-12-14T02:49:14.108Z,7.40
2022-12-14T02:52:31.978Z,7.07
2022-12-14T02:55:05.525Z,7.10
2022-12-14T02:57:50.927Z,6.80
2022-12-14T03:00:19.491Z,6.83
2022-12-14T03:02:48.722Z,7.60
2022-12-14T03:05:15.926Z,7.10
2022-12-14T03:07:49.323Z,8.03
2022-12-14T03:10:25.240Z,7.80
2022-12-14T03:12:59.796Z,7.30
2022-12-14T03:15:28.484Z,7.33
2022-12-14T03:18:00.300Z,7.50
2022-12-14T03:20:31.015Z,7.50
2022-12-14T03:23:00.476Z,7.77
2022-12-14T03:25:37.188Z,8.23
2022-12-14T03:28:16.612Z,7.27
2022-12-14T03:31:03.768Z,7.43
2022-12-14T03:33:35.588Z,7.00
2022-12-14T03:36:11.447Z,7.10
2022-12-14T03:38:42.886Z,6.50
2022-12-14T03:41:33.395Z,8.13
2022-12-14T03:44:32.541Z,7.67
2022-12-14T03:47:18.725Z,7.10
2022-12-14T03:50:12.854Z,7.10
2022-12-14T03:52:57.727Z,7.43
2022-12-14T03:55:40.340Z,6.90
2022-12-14T03:58:26.727Z,7.50
2022-12-14T04:01:21.308Z,6.97
2022-12-14T04:04:03.660Z,7.30
2022-12-14T04:07:00.186Z,6.57
2022-12-14T04:09:52.796Z,6.97
2022-12-14T04:12:52.067Z,6.63
2022-12-14T04:15:52.938Z,6.80
2022-12-14T04:18:47.588Z,6.97
2022-12-14T04:21:24.642Z,6.40
2022-12-14T04:24:16.037Z,7.90
2022-12-14T04:26:57.630Z,7.37
2022-12-14T04:29:47.612Z,6.63
2022-12-14T04:32:27.940Z,5.83
2022-12-14T04:35:04.220Z,6.87
2022-12-14T04:37:34.148Z,6.73
2022-12-14T04:40:27.536Z,7.80
2022-12-14T04:43:01.314Z,7.07
2022-12-14T04:45:34.478Z,7.20
2022-12-14T04:48:29.598Z,7.70
2022-12-14T04:51:03.938Z,7.83
2022-12-14T04:53:33.214Z,6.63
2022-12-14T04:56:09.629Z,7.87
2022-12-14T04:58:40.450Z,7.20
2022-12-14T05:01:15.809Z,7.10
2022-12-14T05:03:59.069Z,7.37
2022-12-14T05:06:50.243Z,7.20
2022-12-14T05:09:24.314Z,6.63
2022-12-14T05:12:15.133Z,7.47
2022-12-14T05:14:49.171Z,6.20
2022-12-14T05:17:17.000Z,7.00
2022-12-14T05:19:48.842Z,6.37
2022-12-14T05:22:16.862Z,6.30
2022-12-14T05:24:46.573Z,7.80
2022-12-14T05:27:13.574Z,6.70
2022-12-14T05:29:40.612Z,7.67
2022-12-14T05:32:11.058Z,6.23
2022-12-14T05:34:37.886Z,6.90
2022-12-14T05:37:04.730Z,7.83
2022-12-14T05:39:31.697Z,7.33
2022-12-14T05:41:58.407Z,7.97
2022-12-14T05:44:25.573Z,7.23
2022-12-14T05:46:52.371Z,6.17
2022-12-14T05:49:19.088Z,7.20
2022-12-14T05:51:48.146Z,7.70
2022-12-14T05:54:15.297Z,6.73
2022-12-14T05:56:42.177Z,7.53
2022-12-14T05:59:09.122Z,8.03
2022-12-14T06:01:35.916Z,8.53
2022-12-14T06:04:02.761Z,7.37
2022-12-14T06:06:29.608Z,8.07
2022-12-14T06:08:56.369Z,8.00
2022-12-14T06:11:23.878Z,7.07
2022-12-14T06:13:51.318Z,8.47
2022-12-14T06:16:23.306Z,7.73
2022-12-14T06:18:57.468Z,8.10
2022-12-14T06:21:27.097Z,8.57
2022-12-14T06:23:55.151Z,7.33
2022-12-14T06:26:23.310Z,9.03
2022-12-14T06:28:50.363Z,8.80
2022-12-14T06:31:20.433Z,7.47
2022-12-14T06:33:47.577Z,7.37
2022-12-14T06:36:29.341Z,8.00
2022-12-14T06:38:57.725Z,8.53
2022-12-14T06:41:24.824Z,7.70
2022-12-14T06:43:53.733Z,8.00
2022-12-14T06:46:22.769Z,8.10
2022-12-14T06:48:51.110Z,7.27
2022-12-14T06:51:17.930Z,9.03
2022-12-14T06:53:45.097Z,8.13
2022-12-14T06:56:14.514Z,7.97
2022-12-14T06:58:41.688Z,7.00
2022-12-14T07:01:13.446Z,8.50
2022-12-14T07:03:42.932Z,7.00
2022-12-14T07:06:10.496Z,7.90
2022-12-14T07:08:38.940Z,8.00
2022-12-14T07:11:11.863Z,8.13
2022-12-14T07:13:39.183Z,7.37
2022-12-14T07:16:07.258Z,7.27
2022-12-14T07:18:34.739Z,6.67
2022-12-14T07:21:04.301Z,7.63
2022-12-14T07:23:32.750Z,7.43
2022-12-14T07:26:08.016Z,6.73
2022-12-14T07:28:37.108Z,6.97
2022-12-14T07:31:06.110Z,6.53
2022-12-14T07:33:33.141Z,6.63
2022-12-14T07:36:10.172Z,6.40
2022-12-14T07:38:38.429Z,6.63
2022-12-14T07:41:32.418Z,6.40
2022-12-14T07:44:00.800Z,6.53
2022-12-14T07:46:29.381Z,6.10
2022-12-14T07:48:57.751Z,7.30
2022-12-14T07:51:30.358Z,6.63
2022-12-14T07:53:57.809Z,6.43
2022-12-14T07:56:29.530Z,7.53
2022-12-14T07:58:57.725Z,6.43
2022-12-14T08:01:27.260Z,6.63
2022-12-14T08:03:59.407Z,6.57
2022-12-14T08:06:28.985Z,6.60
2022-12-14T08:08:56.259Z,6.97
2022-12-14T08:11:23.544Z,6.33
2022-12-14T08:13:58.323Z,6.63
2022-12-14T08:16:26.123Z,6.17
2022-12-14T08:18:55.162Z,6.13
2022-12-14T08:21:22.835Z,6.17
2022-12-14T08:23:50.809Z,5.80
2022-12-14T08:26:18.247Z,6.13
2022-12-14T08:28:45.872Z,6.20
2022-12-14T08:31:16.917Z,5.87
2022-12-14T08:33:44.829Z,5.83
2022-12-14T08:36:13.909Z,6.47
2022-12-14T08:38:41.990Z,5.80
2022-12-14T08:41:12.343Z,6.10
2022-12-14T08:43:40.529Z,6.03
2022-12-14T08:46:09.129Z,6.13
2022-12-14T08:48:38.729Z,6.33
2022-12-14T08:51:08.290Z,5.77
2022-12-14T08:53:36.455Z,6.00
2022-12-14T08:56:11.234Z,7.33
2022-12-14T08:58:39.576Z,6.97
2022-12-14T09:01:34.311Z,6.30
2022-12-14T09:04:06.394Z,6.33
2022-12-14T09:06:35.719Z,6.00
2022-12-14T09:09:03.600Z,5.93
2022-12-14T09:11:30.417Z,6.70
2022-12-14T09:13:57.230Z,6.67
2022-12-14T09:16:26.335Z,6.67
2022-12-14T09:18:53.740Z,6.97
2022-12-14T09:21:21.259Z,6.77
2022-12-14T09:23:52.633Z,7.10
2022-12-14T09:26:25.148Z,6.93
2022-12-14T09:28:54.473Z,7.70
2022-12-14T09:31:23.607Z,6.93
2022-12-14T09:33:50.825Z,7.03
2022-12-14T09:36:23.736Z,7.53
2022-12-14T09:38:52.403Z,6.97
2022-12-14T09:41:25.260Z,7.80
2022-12-14T09:44:18.090Z,7.40
2022-12-14T09:47:17.601Z,6.80
2022-12-14T09:49:58.705Z,7.17
2022-12-14T09:52:40.875Z,7.33
2022-12-14T09:55:37.296Z,7.80
2022-12-14T09:58:20.786Z,7.90
2022-12-14T10:01:06.634Z,7.47
2022-12-14T10:03:33.921Z,8.13
2022-12-14T10:06:31.965Z,7.53
2022-12-14T10:09:05.029Z,7.83
2022-12-14T10:11:55.458Z,8.30
2022-12-14T10:14:42.673Z,6.63
2022-12-14T10:17:26.840Z,7.80
2022-12-14T10:19:56.072Z,8.63
2022-12-14T10:22:32.395Z,7.93
2022-12-14T10:25:26.852Z,8.10
2022-12-14T10:28:11.789Z,7.67
2022-12-14T10:30:44.304Z,7.60
2022-12-14T10:33:31.629Z,7.63
2022-12-14T10:36:28.756Z,7.20
2022-12-14T10:39:01.824Z,8.10
2022-12-14T10:41:49.557Z,8.00
2022-12-14T10:44:30.860Z,8.20
2022-12-14T10:47:23.058Z,7.50
2022-12-14T10:50:18.996Z,7.50
2022-12-14T10:52:48.842Z,7.60
2022-12-14T10:55:22.861Z,7.73
2022-12-14T10:57:49.582Z,6.77
2022-12-14T11:00:23.226Z,7.23
2022-12-14T11:02:56.754Z,7.17
2022-12-14T11:05:35.733Z,7.40
2022-12-14T11:08:07.540Z,7.23
2022-12-14T11:10:36.241Z,7.90
2022-12-14T11:13:06.921Z,7.20
2022-12-14T11:15:37.865Z,7.50
2022-12-14T11:18:16.628Z,7.00
2022-12-14T11:20:51.219Z,7.77
2022-12-14T11:23:26.040Z,7.83
2022-12-14T11:25:59.187Z,7.20
2022-12-14T11:28:39.635Z,6.80
2022-12-14T11:31:10.462Z,7.90
2022-12-14T11:33:50.584Z,7.13
2022-12-14T11:36:31.064Z,8.17
2022-12-14T11:39:05.389Z,7.10
2022-12-14T11:41:38.459Z,7.33
2022-12-14T11:44:14.246Z,7.90
2022-12-14T11:47:02.234Z,7.10
2022-12-14T11:49:36.273Z,7.83
2022-12-14T11:52:06.105Z,7.07
2022-12-14T11:54:34.584Z,6.97
2022-12-14T11:57:03.325Z,7.17
2022-12-14T11:59:40.968Z,6.40
2022-12-14T12:02:16.947Z,7.47
2022-12-14T12:04:47.071Z,7.67
2022-12-14T12:07:32.970Z,8.70
2022-12-14T12:10:05.773Z,6.90
2022-12-14T12:12:35.759Z,7.40
2022-12-14T12:15:03.453Z,7.40
2022-12-14T12:17:42.224Z,7.13
2022-12-14T12:20:42.949Z,8.23
2022-12-14T12:23:35.455Z,7.70
2022-12-14T12:26:12.036Z,6.60
2022-12-14T12:28:43.887Z,7.10
2022-12-14T12:31:18.729Z,6.60
2022-12-14T12:34:00.633Z,7.33
2022-12-14T12:36:27.434Z,6.13
2022-12-14T12:39:23.826Z,6.93
2022-12-14T12:42:09.572Z,7.40
2022-12-14T12:44:57.690Z,6.80
2022-12-14T12:47:44.448Z,6.50
2022-12-14T12:50:32.255Z,6.70
2022-12-14T12:53:10.432Z,7.03
2022-12-14T12:55:52.811Z,6.83
2022-12-14T12:58:22.483Z,7.13
2022-12-14T13:00:54.677Z,7.10
2022-12-14T13:03:29.634Z,7.10
2022-12-14T13:06:05.127Z,6.50
2022-12-14T13:08:37.082Z,6.43
2022-12-14T13:11:27.810Z,6.77
2022-12-14T13:14:13.652Z,7.37
2022-12-14T13:16:42.271Z,6.33
2022-12-14T13:19:48.690Z,6.50
2022-12-14T13:22:13.385Z,5.90
2022-12-14T13:24:43.414Z,6.20
2022-12-14T13:27:29.025Z,7.17
2022-12-14T13:30:17.861Z,5.57
2022-12-14T13:33:06.351Z,5.40
2022-12-14T13:36:09.738Z,5.80
2022-12-14T13:39:13.028Z,5.63
2022-12-14T13:41:47.117Z,5.50
2022-12-14T13:44:37.454Z,5.77
2022-12-14T13:47:20.494Z,6.10
2022-12-14T13:50:33.777Z,5.93
2022-12-14T13:52:46.813Z,6.07
2022-12-14T13:55:38.419Z,6.50
2022-12-14T13:58:14.001Z,5.77
2022-12-14T14:00:49.240Z,5.67
2022-12-14T14:03:34.733Z,5.30
2022-12-14T14:06:30.936Z,5.57
2022-12-14T14:09:03.018Z,5.90
2022-12-14T14:11:38.090Z,5.30
2022-12-14T14:14:31.828Z,6.10
2022-12-14T14:17:06.668Z,5.53
2022-12-14T14:19:39.614Z,5.53
2022-12-14T14:22:23.256Z,5.30
2022-12-14T14:25:09.442Z,5.97
2022-12-14T14:27:50.568Z,6.37
2022-12-14T14:30:41.155Z,6.73
2022-12-14T14:33:44.934Z,6.20
2022-12-14T14:36:25.136Z,5.47
2022-12-14T14:38:54.273Z,6.13
2022-12-14T14:41:25.787Z,5.80
2022-12-14T14:44:08.504Z,5.47
2022-12-14T14:46:47.335Z,6.57
2022-12-14T14:49:31.057Z,5.53
2022-12-14T14:52:36.343Z,5.20
2022-12-14T14:55:55.485Z,5.10
2022-12-14T14:58:37.957Z,5.97
2022-12-14T15:01:21.919Z,5.70
2022-12-14T15:03:51.788Z,6.13
2022-12-14T15:06:23.510Z,6.17
2022-12-14T15:08:57.358Z,5.73
2022-12-14T15:11:34.382Z,6.70
2022-12-14T15:14:10.819Z,6.10
2022-12-14T15:16:45.660Z,6.63
2022-12-14T15:19:30.339Z,7.27
2022-12-14T15:22:02.526Z,6.97
2022-12-14T15:24:38.908Z,7.33
2022-12-14T15:27:32.611Z,7.20
2022-12-14T15:30:11.535Z,6.63
2022-12-14T15:32:44.326Z,6.27
2022-12-14T15:35:18.630Z,6.43
2022-12-14T15:37:49.013Z,7.00
2022-12-14T15:40:22.581Z,6.73
2022-12-14T15:43:15.232Z,6.50
2022-12-14T15:45:44.536Z,6.80
2022-12-14T15:48:24.944Z,6.53
2022-12-14T15:51:01.203Z,6.70
2022-12-14T15:53:42.234Z,7.00
2022-12-14T15:56:29.935Z,7.33
2022-12-14T15:58:58.932Z,6.90
2022-12-14T16:01:40.474Z,6.60
2022-12-14T16:04:13.321Z,6.73
2022-12-14T16:06:44.441Z,6.83
2022-12-14T16:09:22.235Z,7.33
2022-12-14T16:11:55.745Z,7.60
2022-12-14T16:14:32.098Z,7.83
2022-12-14T16:16:59.631Z,8.10
2022-12-14T16:19:44.979Z,7.80
2022-12-14T16:22:23.301Z,7.97
2022-12-14T16:25:19.078Z,7.43
2022-12-14T16:27:49.916Z,7.63
2022-12-14T16:30:34.765Z,7.33
2022-12-14T16:33:19.898Z,8.17
2022-12-14T16:35:57.730Z,7.73
2022-12-14T16:38:24.665Z,7.30
2022-12-14T16:40:58.599Z,7.87
2022-12-14T16:43:31.574Z,8.00
2022-12-14T16:46:04.906Z,8.43
2022-12-14T16:48:37.606Z,8.07
2022-12-14T16:51:28.557Z,7.60
2022-12-14T16:54:06.377Z,7.60
2022-12-14T16:56:44.922Z,8.00
2022-12-14T16:59:28.095Z,6.70
2022-12-14T17:01:55.681Z,7.83
2022-12-14T17:04:23.217Z,8.60
2022-12-14T17:06:56.686Z,7.77
2022-12-14T17:09:25.921Z,7.77
2022-12-14T17:12:02.119Z,8.30
2022-12-14T17:14:28.888Z,8.17
2022-12-14T17:17:05.561Z,7.53
2022-12-14T17:19:36.334Z,7.87
2022-12-14T17:22:05.145Z,9.97
2022-12-14T17:24:32.773Z,13.23
2022-12-14T17:27:01.572Z,10.60
2022-12-14T17:29:33.422Z,9.70
2022-12-14T17:32:02.726Z,10.57
2022-12-14T17:34:30.224Z,9.43
2022-12-14T17:36:57.428Z,10.00
2022-12-14T17:39:25.023Z,9.87
2022-12-14T17:41:52.171Z,10.03
2022-12-14T17:44:20.308Z,10.07
2022-12-14T17:46:49.883Z,10.63
2022-12-14T17:49:36.335Z,9.60
2022-12-14T17:52:04.890Z,9.83
2022-12-14T17:54:32.348Z,10.03
2022-12-14T17:56:59.798Z,10.33
2022-12-14T17:59:26.758Z,11.00
2022-12-14T18:01:53.653Z,10.40
2022-12-14T18:04:20.522Z,10.30
2022-12-14T18:06:47.404Z,11.23
2022-12-14T18:09:16.053Z,10.90
2022-12-14T18:12:00.537Z,11.47
2022-12-14T18:14:29.623Z,11.97
2022-12-14T18:17:01.175Z,11.43
2022-12-14T18:19:29.811Z,10.43
2022-12-14T18:22:04.078Z,10.03
2022-12-14T18:24:30.864Z,10.67
2022-12-14T18:26:57.714Z,9.67
2022-12-14T18:29:24.912Z,9.93
2022-12-14T18:31:52.287Z,9.60
2022-12-14T18:34:19.063Z,8.77
2022-12-14T18:36:45.816Z,9.83
2022-12-14T18:39:12.645Z,10.47
2022-12-14T18:41:39.592Z,10.40
2022-12-14T18:44:06.364Z,11.20
2022-12-14T18:46:33.281Z,11.00
2022-12-14T18:49:02.795Z,10.57
2022-12-14T18:51:29.594Z,10.37
2022-12-14T18:53:58.230Z,10.57
2022-12-14T18:56:28.052Z,10.40
2022-12-14T18:58:56.155Z,9.33
2022-12-14T19:01:24.917Z,10.87
2022-12-14T19:03:54.751Z,9.40
2022-12-14T19:09:11.023Z,9.77
2022-12-14T19:11:41.682Z,9.57
2022-12-14T19:14:08.488Z,9.60
2022-12-14T19:16:35.317Z,10.17
2022-12-14T19:19:02.277Z,10.50
2022-12-14T19:21:31.090Z,10.87
2022-12-14T19:24:00.831Z,10.03
2022-12-14T19:26:28.699Z,12.40
2022-12-14T19:28:55.607Z,13.13
2022-12-14T19:31:23.069Z,12.57
2022-12-14T19:33:49.962Z,12.73
2022-12-14T19:36:16.901Z,12.53
2022-12-14T19:38:45.015Z,11.70
2022-12-14T19:41:17.773Z,11.50
2022-12-14T19:43:44.691Z,10.37
2022-12-14T19:46:12.964Z,10.70
2022-12-14T19:48:40.424Z,10.00
2022-12-14T19:51:14.238Z,9.70
2022-12-14T19:53:42.931Z,9.10
2022-12-14T19:56:10.552Z,9.17
2022-12-14T19:58:37.290Z,8.93
2022-12-14T20:01:09.077Z,10.03
2022-12-14T20:03:38.962Z,11.13
2022-12-14T20:06:06.851Z,10.70
2022-12-14T20:08:34.792Z,14.27
2022-12-14T20:11:11.735Z,14.93
2022-12-14T20:13:38.561Z,13.50
2022-12-14T20:16:06.000Z,12.57
2022-12-14T20:18:32.994Z,12.10
2022-12-14T20:21:07.008Z,9.80
2022-12-14T20:23:39.690Z,10.53
2022-12-14T20:26:16.540Z,10.17
2022-12-14T20:28:43.500Z,10.87
2022-12-14T20:31:10.874Z,10.83
2022-12-14T20:33:38.954Z,12.43
2022-12-14T20:36:06.406Z,11.53
2022-12-14T20:38:33.627Z,10.20
2022-12-14T20:41:12.348Z,13.57
2022-12-14T20:43:42.268Z,11.03
2022-12-14T20:46:27.688Z,10.97
2022-12-14T20:48:54.970Z,10.13
2022-12-14T20:51:21.835Z,11.97
2022-12-14T20:53:49.491Z,9.97
2022-12-14T20:56:16.429Z,10.40
2022-12-14T20:58:47.560Z,10.63
2022-12-14T21:01:15.535Z,10.57
2022-12-14T21:03:42.722Z,11.13
2022-12-14T21:06:16.651Z,10.67
2022-12-14T21:09:04.919Z,10.83
2022-12-14T21:11:52.094Z,9.67
2022-12-14T21:14:20.271Z,10.20
2022-12-14T21:16:47.606Z,9.47
2022-12-14T21:19:15.907Z,10.53
2022-12-14T21:21:46.833Z,10.37
2022-12-14T21:24:37.427Z,11.13
2022-12-14T21:27:06.273Z,10.70
2022-12-14T21:29:33.266Z,13.27
2022-12-14T21:32:00.467Z,13.37
2022-12-14T21:34:28.164Z,13.53
2022-12-14T21:36:54.998Z,12.10
2022-12-14T21:39:24.080Z,11.70
2022-12-14T21:42:09.683Z,12.27
2022-12-14T21:44:37.515Z,11.30
2022-12-14T21:47:06.888Z,10.73
2022-12-14T21:49:36.794Z,11.73
2022-12-14T21:52:07.300Z,10.93
2022-12-14T21:54:34.888Z,11.77
2022-12-14T21:57:20.151Z,12.93
2022-12-14T21:59:47.100Z,11.13
2022-12-14T22:02:19.634Z,12.20
2022-12-14T22:04:46.759Z,12.17
2022-12-14T22:07:24.813Z,10.93
2022-12-14T22:09:51.604Z,10.87
2022-12-14T22:12:18.529Z,11.93
2022-12-14T22:14:45.353Z,11.03
2022-12-14T22:17:13.574Z,13.37
2022-12-14T22:19:40.640Z,11.37
2022-12-14T22:22:07.795Z,11.10
2022-12-14T22:24:37.574Z,11.30
2022-12-14T22:27:04.240Z,10.80
2022-12-14T22:29:30.928Z,10.60
2022-12-14T22:31:57.741Z,10.17
2022-12-14T22:34:24.630Z,10.97
2022-12-14T22:36:52.560Z,10.73
2022-12-14T22:39:19.764Z,11.10
2022-12-14T22:41:48.564Z,10.70
2022-12-14T22:44:15.415Z,10.93
2022-12-14T22:46:42.171Z,11.13
2022-12-14T22:49:09.894Z,11.73
2022-12-14T22:51:36.768Z,10.87
2022-12-14T22:54:03.687Z,10.30
2022-12-14T22:56:43.060Z,10.60
2022-12-14T22:59:18.208Z,9.47
2022-12-14T23:01:50.128Z,9.03
2022-12-14T23:04:18.477Z,9.87
2022-12-14T23:06:45.582Z,10.53
2022-12-14T23:09:31.302Z,9.17
2022-12-14T23:12:21.476Z,9.60
2022-12-14T23:15:07.688Z,8.53
2022-12-14T23:17:53.589Z,9.77
2022-12-14T23:20:38.841Z,10.30
2022-12-14T23:23:25.579Z,9.60
2022-12-14T23:26:11.051Z,9.87
2022-12-14T23:28:56.749Z,10.50
2022-12-14T23:31:42.449Z,10.17
2022-12-14T23:34:28.212Z,9.47
2022-12-14T23:37:18.140Z,10.03
2022-12-14T23:40:05.619Z,9.97
2022-12-14T23:42:53.348Z,10.40
2022-12-14T23:45:38.782Z,10.45
2022-12-14T23:48:24.199Z,9.70
2022-12-14T23:51:10.485Z,10.70
2022-12-14T23:53:55.874Z,10.40
2022-12-14T23:56:41.642Z,9.97
2022-12-14T23:59:32.060Z,11.10
